Farmville, Virginia
Current Conditions -  °F | °C
As of 8:35 AM on Wednesday 22 Oct 2014 (Local Time) from KFVX Reporting Station
Overcast Overcast  
Wind Chill: 52°   Ceiling: 6000
Heat Index: 52°   Visibility: 10mi
Dew Point: 48°   Wind: 5mph
Humidity: 88%   Direction: 320°NW
Pressure: 29.94"   Gusts: NA
Location:  37.3°N, 78.39°W
Report Text: KFVX 221235Z AUTO 32004KT 10SM SCT040 SCT047 OVC060 11/09 A2994 RMK AO2
Loading
Personal Weather Stations






























Interactive Weather Map New forecast layout! Learn more

10-Day Weather Forecast

Advertisements
Track Severe Weather on mobile